Time;durP1;ratioP1;P1;durP2;ratioP2;P2;SDS_P1;SDS_P2;PMS_P1;PMS_P2;Temp;Humidity;BMP_temperature;BMP_pressure;BME280_temperature;BME280_humidity;BME280_pressure;Samples;Min_cycle;Max_cycle;Signal;HPM_P1;HPM_P2
2023/02/26 00:01:16;;;;;;;10.23;4.20;;;2.60;75.00;;;;;;5007437;28;20041;-57
2023/02/26 00:03:42;;;;;;;11.80;4.38;;;2.60;75.20;;;;;;5005676;28;20037;-60
2023/02/26 00:06:08;;;;;;;9.63;4.57;;;2.60;75.50;;;;;;5006502;28;20069;-58
2023/02/26 00:08:34;;;;;;;13.68;4.80;;;2.60;75.70;;;;;;5009064;28;20092;-59
2023/02/26 00:11:00;;;;;;;9.15;4.63;;;2.60;75.70;;;;;;5007198;28;20064;-59
2023/02/26 00:13:27;;;;;;;10.77;5.25;;;2.60;75.70;;;;;;5008657;28;20436;-60
2023/02/26 00:15:58;;;;;;;10.18;4.60;;;2.60;75.50;;;;;;5011515;28;20046;-60
2023/02/26 00:18:25;;;;;;;5.22;3.30;;;2.60;75.10;;;;;;5010118;28;20326;-59
2023/02/26 00:20:50;;;;;;;3.70;2.60;;;2.60;75.00;;;;;;5008706;28;20389;-60
2023/02/26 00:23:17;;;;;;;3.70;2.28;;;2.60;74.90;;;;;;5009784;28;20041;-59
2023/02/26 00:25:43;;;;;;;4.95;2.47;;;2.60;75.00;;;;;;5005125;28;20626;-58
2023/02/26 00:28:10;;;;;;;2.97;2.28;;;2.60;75.10;;;;;;5008368;28;20571;-59
2023/02/26 00:30:36;;;;;;;2.92;2.20;;;2.60;75.50;;;;;;5010221;28;20073;-59
2023/02/26 00:33:03;;;;;;;2.90;1.90;;;2.60;75.50;;;;;;5004790;28;20536;-59
2023/02/26 00:35:28;;;;;;;2.08;1.83;;;2.60;75.30;;;;;;5006366;28;20516;-56
2023/02/26 00:37:54;;;;;;;4.20;2.30;;;2.60;75.40;;;;;;5009088;28;20033;-60
2023/02/26 00:40:34;;;;;;;5.00;2.70;;;2.60;75.30;;;;;;5009676;28;20042;-58
2023/02/26 00:43:02;;;;;;;4.20;2.35;;;2.70;75.60;;;;;;5008047;28;20085;-59
2023/02/26 00:45:27;;;;;;;5.40;3.38;;;2.70;75.50;;;;;;5008563;28;20087;-59
2023/02/26 00:48:18;;;;;;;4.97;2.78;;;2.70;75.50;;;;;;5006004;28;20487;-57
2023/02/26 00:50:55;;;;;;;7.10;2.97;;;2.70;75.60;;;;;;5005822;28;20034;-58
2023/02/26 00:53:23;;;;;;;4.75;2.88;;;2.70;75.30;;;;;;5003695;28;20087;-56
2023/02/26 00:55:49;;;;;;;3.80;2.38;;;2.70;75.20;;;;;;5009579;28;20062;-57
2023/02/26 00:58:14;;;;;;;4.68;2.33;;;2.60;74.90;;;;;;5015551;28;20598;-57
2023/02/26 01:00:40;;;;;;;5.88;3.30;;;2.60;75.00;;;;;;5015335;28;20061;-60
2023/02/26 01:03:06;;;;;;;2.60;2.20;;;2.60;75.30;;;;;;5014889;28;20536;-57
2023/02/26 01:05:32;;;;;;;6.60;2.40;;;2.50;75.70;;;;;;5015289;28;20456;-58
2023/02/26 01:08:23;;;;;;;2.00;1.63;;;2.50;74.50;;;;;;5015270;28;20041;-56
2023/02/26 01:10:49;;;;;;;5.45;2.67;;;2.40;74.70;;;;;;5011970;28;20117;-59
2023/02/26 01:13:15;;;;;;;6.35;2.80;;;2.30;75.10;;;;;;5011779;28;20121;-58
2023/02/26 01:15:47;;;;;;;3.90;2.38;;;2.30;75.40;;;;;;5009111;28;20089;-58
2023/02/26 01:18:27;;;;;;;3.88;2.38;;;2.30;75.70;;;;;;5014263;28;20140;-59
2023/02/26 01:20:59;;;;;;;6.35;3.10;;;2.20;74.70;;;;;;5015071;28;20064;-59
2023/02/26 01:23:28;;;;;;;6.70;3.08;;;2.20;75.00;;;;;;5009663;28;20038;-59
2023/02/26 01:25:53;;;;;;;5.25;2.85;;;2.10;76.00;;;;;;5012405;28;20056;-58
2023/02/26 01:28:20;;;;;;;5.03;2.63;;;2.00;75.40;;;;;;5014351;28;20425;-59
2023/02/26 01:30:46;;;;;;;4.10;2.20;;;2.00;75.20;;;;;;5005833;28;20034;-58
2023/02/26 01:33:23;;;;;;;2.72;2.00;;;1.90;75.40;;;;;;5006965;28;20091;-58
2023/02/26 01:36:06;;;;;;;2.53;1.80;;;1.90;75.50;;;;;;5007074;28;20036;-59
2023/02/26 01:39:13;;;;;;;4.32;1.90;;;1.90;75.70;;;;;;5005587;28;20509;-58
2023/02/26 01:41:54;;;;;;;3.55;1.80;;;1.80;75.40;;;;;;5008333;28;20187;-59
2023/02/26 01:44:35;;;;;;;4.35;1.60;;;1.80;75.20;;;;;;5007867;28;20048;-60
2023/02/26 01:47:09;;;;;;;3.50;1.80;;;1.80;75.20;;;;;;5010990;28;20033;-58
2023/02/26 01:49:35;;;;;;;2.45;1.70;;;1.70;74.40;;;;;;5013186;28;20033;-60
2023/02/26 01:52:04;;;;;;;2.03;1.25;;;1.70;74.80;;;;;;5010449;28;20482;-59
2023/02/26 01:54:35;;;;;;;1.90;1.45;;;1.70;74.90;;;;;;5010969;28;20524;-59
2023/02/26 01:57:10;;;;;;;5.65;1.80;;;1.60;74.70;;;;;;5014308;28;20026;-57
2023/02/26 01:59:38;;;;;;;1.85;1.50;;;1.60;74.50;;;;;;5013779;28;20034;-59
2023/02/26 02:02:08;;;;;;;4.30;1.80;;;1.60;74.70;;;;;;5023233;28;20033;-58
2023/02/26 02:04:34;;;;;;;3.60;1.70;;;1.60;74.90;;;;;;5015138;28;20437;-59
2023/02/26 02:07:00;;;;;;;4.72;2.13;;;1.60;74.80;;;;;;5014862;28;20088;-59
2023/02/26 02:09:26;;;;;;;4.07;2.00;;;1.60;75.00;;;;;;5015489;28;20095;-59
2023/02/26 02:12:01;;;;;;;2.25;1.63;;;1.60;75.20;;;;;;5010714;28;20025;-58
2023/02/26 02:14:52;;;;;;;3.83;1.83;;;1.50;75.20;;;;;;5011717;28;20030;-58
2023/02/26 02:17:50;;;;;;;4.03;1.48;;;1.50;75.50;;;;;;5005372;28;20095;-57
2023/02/26 02:20:31;;;;;;;4.25;2.35;;;1.50;75.50;;;;;;4994496;28;20030;-59
2023/02/26 02:22:59;;;;;;;2.63;1.83;;;1.50;75.40;;;;;;5010705;28;20460;-59
2023/02/26 02:25:59;;;;;;;3.13;1.88;;;1.50;75.30;;;;;;5009853;28;20129;-59
2023/02/26 02:28:59;;;;;;;2.85;1.88;;;1.50;75.50;;;;;;5014371;28;20030;-60
2023/02/26 02:31:33;;;;;;;2.22;1.95;;;1.50;75.80;;;;;;5008086;28;20030;-58
2023/02/26 02:34:08;;;;;;;3.40;1.80;;;1.50;75.90;;;;;;5010306;28;20041;-58
2023/02/26 02:36:56;;;;;;;3.00;1.90;;;1.50;76.10;;;;;;5010846;28;20080;-58
2023/02/26 02:39:44;;;;;;;2.30;2.10;;;1.50;76.20;;;;;;5013355;28;20029;-58
2023/02/26 02:42:13;;;;;;;4.75;2.20;;;1.50;76.30;;;;;;5008610;28;20041;-60
2023/02/26 02:44:45;;;;;;;2.88;2.00;;;1.50;76.20;;;;;;5012005;28;20043;-58
2023/02/26 02:47:12;;;;;;;2.42;1.83;;;1.60;76.20;;;;;;5010143;28;20495;-58
2023/02/26 02:49:54;;;;;;;5.72;2.40;;;1.60;76.20;;;;;;5007263;28;20040;-58
2023/02/26 02:52:47;;;;;;;2.70;1.98;;;1.60;76.30;;;;;;5012929;28;20120;-59
2023/02/26 02:55:19;;;;;;;3.45;2.13;;;1.70;76.20;;;;;;5005851;28;20029;-58
2023/02/26 02:57:51;;;;;;;3.05;2.17;;;1.70;75.90;;;;;;5012378;28;20042;-58
2023/02/26 03:00:21;;;;;;;3.42;2.00;;;1.70;75.70;;;;;;5006060;28;20038;-58
2023/02/26 03:03:07;;;;;;;3.30;2.40;;;1.60;75.80;;;;;;5005909;28;20034;-59
2023/02/26 03:05:32;;;;;;;6.15;2.40;;;1.60;76.00;;;;;;5011178;28;20452;-59
2023/02/26 03:08:02;;;;;;;4.78;2.50;;;1.60;75.70;;;;;;5010199;28;20045;-55
2023/02/26 03:10:28;;;;;;;2.83;2.00;;;1.70;75.50;;;;;;5012143;28;20331;-57
2023/02/26 03:12:54;;;;;;;3.70;2.10;;;1.70;75.40;;;;;;5008128;28;20046;-59
2023/02/26 03:15:32;;;;;;;5.32;1.98;;;1.70;74.40;;;;;;5010534;28;20536;-58
2023/02/26 03:18:29;;;;;;;3.90;2.00;;;1.70;74.10;;;;;;5009452;28;20064;-59
2023/02/26 03:21:17;;;;;;;3.40;2.08;;;1.60;74.00;;;;;;5011258;28;20037;-57
2023/02/26 03:23:51;;;;;;;2.90;1.95;;;1.60;73.40;;;;;;5010454;28;20151;-59
2023/02/26 03:26:29;;;;;;;4.10;2.03;;;1.50;73.90;;;;;;5007949;28;20037;-59
2023/02/26 03:29:11;;;;;;;8.80;2.42;;;1.50;73.60;;;;;;5007841;28;20111;-56
2023/02/26 03:31:57;;;;;;;4.38;2.00;;;1.40;72.70;;;;;;5010779;28;20045;-57
2023/02/26 03:34:26;;;;;;;5.10;2.20;;;1.30;73.40;;;;;;5006949;28;20045;-57
2023/02/26 03:37:16;;;;;;;8.13;2.17;;;1.30;73.90;;;;;;5009974;28;20134;-59
2023/02/26 03:39:47;;;;;;;5.18;2.10;;;1.20;73.80;;;;;;5009684;28;20036;-57
2023/02/26 03:42:34;;;;;;;2.15;1.42;;;1.20;73.70;;;;;;5006662;28;20040;-58
2023/02/26 03:45:03;;;;;;;3.60;1.70;;;1.20;73.70;;;;;;5011205;28;20379;-57
2023/02/26 03:47:33;;;;;;;3.58;1.73;;;1.10;73.70;;;;;;5010450;28;20100;-56
2023/02/26 03:50:13;;;;;;;6.47;2.00;;;1.10;73.50;;;;;;5014280;28;20504;-59
2023/02/26 03:52:42;;;;;;;3.97;1.60;;;1.00;73.80;;;;;;5009788;28;20045;-59
2023/02/26 03:55:15;;;;;;;3.72;1.83;;;1.00;74.10;;;;;;5005137;28;20026;-57
2023/02/26 03:57:42;;;;;;;3.20;1.77;;;1.00;74.40;;;;;;5012055;28;20038;-58
2023/02/26 04:00:09;;;;;;;3.92;1.88;;;1.00;74.10;;;;;;5015036;28;20355;-58
2023/02/26 04:03:00;;;;;;;4.22;2.20;;;0.90;74.20;;;;;;5011848;28;20037;-58
2023/02/26 04:05:33;;;;;;;3.40;1.90;;;0.90;74.30;;;;;;5013035;28;20096;-59
2023/02/26 04:07:59;;;;;;;3.95;2.03;;;0.90;74.10;;;;;;5013782;28;20083;-58
2023/02/26 04:10:35;;;;;;;4.43;2.05;;;0.90;73.80;;;;;;5015446;28;20295;-59
2023/02/26 04:13:01;;;;;;;3.00;1.80;;;0.90;74.10;;;;;;5009851;28;20087;-59
2023/02/26 04:15:27;;;;;;;4.57;2.45;;;0.80;74.10;;;;;;5006213;28;20378;-59
2023/02/26 04:17:53;;;;;;;5.05;2.00;;;0.80;74.10;;;;;;5010877;28;20040;-58
2023/02/26 04:20:19;;;;;;;5.85;2.00;;;0.80;73.90;;;;;;5008611;28;20042;-59
2023/02/26 04:22:44;;;;;;;5.10;2.00;;;0.80;74.00;;;;;;5006961;28;20057;-57
2023/02/26 04:25:10;;;;;;;4.45;1.95;;;0.70;73.90;;;;;;5007646;28;20071;-58
2023/02/26 04:27:36;;;;;;;5.28;1.90;;;0.70;74.70;;;;;;5008891;28;20069;-59
2023/02/26 04:30:01;;;;;;;2.47;1.73;;;0.60;73.90;;;;;;5007537;28;20600;-59
2023/02/26 04:32:27;;;;;;;3.88;1.95;;;0.60;73.90;;;;;;5011292;28;20139;-57
2023/02/26 04:34:52;;;;;;;4.00;2.10;;;0.60;73.80;;;;;;5008654;28;20447;-56
2023/02/26 04:37:18;;;;;;;4.00;1.92;;;0.50;74.10;;;;;;5008263;28;20029;-56
2023/02/26 04:39:43;;;;;;;6.13;2.00;;;0.50;74.30;;;;;;5011985;28;20465;-59
2023/02/26 04:42:09;;;;;;;4.32;2.00;;;0.50;74.40;;;;;;5010066;28;20132;-60
2023/02/26 04:44:35;;;;;;;2.72;1.65;;;0.50;74.40;;;;;;5008635;28;20033;-58
2023/02/26 04:47:00;;;;;;;2.17;1.73;;;0.50;74.40;;;;;;5014205;28;20034;-58
2023/02/26 04:49:26;;;;;;;6.43;1.90;;;0.50;74.50;;;;;;5013167;28;20124;-58
2023/02/26 04:51:51;;;;;;;5.28;2.13;;;0.50;74.40;;;;;;5010934;28;20025;-57
2023/02/26 04:54:17;;;;;;;3.95;2.00;;;0.50;74.50;;;;;;5006216;28;20037;-57
2023/02/26 04:56:43;;;;;;;5.13;2.40;;;0.50;74.30;;;;;;5009297;28;20038;-58
2023/02/26 04:59:08;;;;;;;5.75;2.20;;;0.50;74.10;;;;;;5006993;28;20137;-59
2023/02/26 05:01:34;;;;;;;4.53;1.85;;;0.40;74.00;;;;;;5010160;28;20046;-58
2023/02/26 05:04:00;;;;;;;4.10;2.17;;;0.50;74.10;;;;;;5010656;28;20529;-59
2023/02/26 05:06:25;;;;;;;4.55;2.00;;;0.40;74.30;;;;;;5013761;28;20041;-59
2023/02/26 05:08:51;;;;;;;4.72;2.10;;;0.40;74.20;;;;;;5013780;28;20058;-57
2023/02/26 05:11:17;;;;;;;6.38;2.00;;;0.40;74.10;;;;;;5010427;28;20428;-57
2023/02/26 05:13:42;;;;;;;4.13;2.45;;;0.40;74.30;;;;;;5010441;28;20084;-59
2023/02/26 05:16:08;;;;;;;5.57;3.42;;;0.40;74.40;;;;;;5010916;28;20531;-58
2023/02/26 05:18:34;;;;;;;8.13;4.00;;;0.40;74.40;;;;;;5012857;28;20064;-59
2023/02/26 05:20:59;;;;;;;4.90;2.72;;;0.50;75.20;;;;;;5013046;28;20045;-60
2023/02/26 05:23:26;;;;;;;4.60;2.38;;;0.50;74.30;;;;;;5008060;28;20395;-58
2023/02/26 05:25:55;;;;;;;4.18;2.33;;;0.50;74.30;;;;;;5010670;28;20525;-60
2023/02/26 05:28:20;;;;;;;3.88;2.40;;;0.50;74.10;;;;;;5010982;28;20121;-57
2023/02/26 05:30:46;;;;;;;7.50;2.47;;;0.50;74.10;;;;;;5009752;28;20133;-57
2023/02/26 05:33:11;;;;;;;4.75;2.50;;;0.50;73.80;;;;;;5009684;28;20409;-59
2023/02/26 05:35:37;;;;;;;4.05;2.58;;;0.50;73.60;;;;;;5010159;28;20037;-59
2023/02/26 05:38:03;;;;;;;4.43;2.30;;;0.40;73.60;;;;;;5010346;28;20041;-58
2023/02/26 05:40:29;;;;;;;5.63;2.30;;;0.40;73.60;;;;;;5012454;28;20541;-59
2023/02/26 05:42:54;;;;;;;5.85;2.53;;;0.40;73.70;;;;;;5009135;28;20033;-60
2023/02/26 05:45:20;;;;;;;3.80;2.63;;;0.40;73.60;;;;;;5007031;28;20519;-58
2023/02/26 05:47:45;;;;;;;3.67;2.20;;;0.40;73.60;;;;;;5012144;28;20438;-58
2023/02/26 05:50:11;;;;;;;5.45;1.98;;;0.30;73.50;;;;;;5015276;28;20095;-58
2023/02/26 05:52:37;;;;;;;3.65;2.00;;;0.30;73.50;;;;;;5008737;28;20365;-59
2023/02/26 05:55:03;;;;;;;7.82;3.95;;;0.30;73.40;;;;;;5012077;28;20053;-59
2023/02/26 05:57:28;;;;;;;4.40;2.25;;;0.30;73.60;;;;;;5013121;28;20500;-59
2023/02/26 05:59:54;;;;;;;9.70;2.55;;;0.20;73.70;;;;;;5013949;28;20096;-58
2023/02/26 06:02:20;;;;;;;6.32;2.80;;;0.20;73.60;;;;;;5013459;28;20026;-57
2023/02/26 06:04:46;;;;;;;6.22;2.08;;;0.20;73.60;;;;;;5014487;28;20497;-59
2023/02/26 06:07:11;;;;;;;4.70;2.00;;;0.10;73.60;;;;;;5016804;28;20457;-61
2023/02/26 06:09:37;;;;;;;4.93;2.00;;;0.10;73.60;;;;;;5015908;28;20022;-58
2023/02/26 06:12:03;;;;;;;3.95;2.20;;;0.10;73.80;;;;;;5005779;28;20743;-59
2023/02/26 06:14:29;;;;;;;6.30;2.20;;;0.10;73.70;;;;;;5010683;28;20072;-60
2023/02/26 06:16:55;;;;;;;5.93;2.00;;;0.00;73.60;;;;;;5007691;28;20116;-59
2023/02/26 06:19:20;;;;;;;5.57;1.92;;;0.00;73.50;;;;;;5012337;28;20036;-58
2023/02/26 06:21:46;;;;;;;4.45;1.60;;;-0.10;73.60;;;;;;5008846;28;20526;-59
2023/02/26 06:24:12;;;;;;;4.80;1.75;;;-0.10;73.60;;;;;;5009497;28;20030;-59
2023/02/26 06:26:38;;;;;;;4.68;1.92;;;-0.10;73.80;;;;;;5010201;28;20045;-60
2023/02/26 06:29:03;;;;;;;6.22;2.05;;;-0.10;73.80;;;;;;5007894;28;20050;-59
2023/02/26 06:31:29;;;;;;;5.72;2.40;;;-0.20;73.80;;;;;;5004711;28;20042;-58
2023/02/26 06:33:54;;;;;;;3.97;1.92;;;-0.20;73.80;;;;;;5005085;28;20034;-59
2023/02/26 06:36:20;;;;;;;3.95;1.73;;;-0.20;73.90;;;;;;5008814;28;20510;-59
2023/02/26 06:38:46;;;;;;;3.30;1.40;;;-0.30;73.80;;;;;;5004848;28;20943;-58
2023/02/26 06:41:12;;;;;;;4.13;1.63;;;-0.30;73.60;;;;;;5004560;28;20038;-58
2023/02/26 06:43:38;;;;;;;3.97;1.52;;;-0.40;73.60;;;;;;5004852;28;20385;-58
2023/02/26 06:46:04;;;;;;;5.38;1.80;;;-0.40;74.00;;;;;;4990452;28;20504;-57
2023/02/26 06:48:30;;;;;;;3.10;1.50;;;-0.40;74.10;;;;;;5008974;28;20503;-57
2023/02/26 06:50:55;;;;;;;3.15;1.58;;;-0.40;74.30;;;;;;4997434;28;20524;-60
2023/02/26 06:53:21;;;;;;;3.53;1.38;;;-0.40;74.40;;;;;;5000054;28;20029;-58
2023/02/26 06:55:51;;;;;;;3.33;1.35;;;-0.40;74.50;;;;;;5010141;28;20120;-58
2023/02/26 06:58:17;;;;;;;3.08;1.30;;;-0.40;74.40;;;;;;5006962;28;20038;-59
2023/02/26 07:00:43;;;;;;;3.28;1.17;;;-0.40;74.00;;;;;;5002972;28;20048;-57
2023/02/26 07:03:14;;;;;;;3.05;1.15;;;-0.40;73.90;;;;;;5002070;28;20038;-58
2023/02/26 07:05:40;;;;;;;2.65;1.48;;;-0.50;73.40;;;;;;5003428;28;20050;-57
2023/02/26 07:08:06;;;;;;;2.88;1.33;;;-0.50;73.60;;;;;;5010161;28;20041;-57
2023/02/26 07:10:33;;;;;;;2.60;1.27;;;-0.60;73.90;;;;;;5004388;28;21327;-59
2023/02/26 07:12:59;;;;;;;5.55;1.10;;;-0.60;74.10;;;;;;5004416;28;20106;-58
2023/02/26 07:15:24;;;;;;;4.57;1.40;;;-0.60;74.50;;;;;;5010540;28;20046;-59
2023/02/26 07:17:50;;;;;;;3.50;1.42;;;-0.60;74.60;;;;;;5006648;28;20037;-58
2023/02/26 07:20:16;;;;;;;5.63;1.50;;;-0.60;74.80;;;;;;5006083;28;20049;-59
2023/02/26 07:22:42;;;;;;;2.22;1.30;;;-0.50;74.80;;;;;;5011521;28;20052;-58
2023/02/26 07:25:08;;;;;;;3.92;1.20;;;-0.50;75.00;;;;;;5003787;28;20223;-59
2023/02/26 07:27:34;;;;;;;4.07;1.23;;;-0.50;74.90;;;;;;5009106;28;20065;-58
2023/02/26 07:30:00;;;;;;;3.20;1.30;;;-0.40;75.10;;;;;;5005772;28;20108;-58
2023/02/26 07:32:25;;;;;;;3.42;1.10;;;-0.30;75.30;;;;;;5009339;28;20512;-59
2023/02/26 07:34:51;;;;;;;1.83;1.10;;;-0.30;75.20;;;;;;5008636;28;20040;-60
2023/02/26 07:37:17;;;;;;;2.97;1.35;;;-0.30;75.10;;;;;;5008153;28;20443;-59
2023/02/26 07:39:44;;;;;;;5.78;3.20;;;-0.30;75.00;;;;;;5001423;28;20148;-59
2023/02/26 07:42:09;;;;;;;6.35;3.08;;;-0.20;75.00;;;;;;5011280;28;20723;-58
2023/02/26 07:44:35;;;;;;;6.90;3.10;;;-0.20;74.80;;;;;;5002356;28;20037;-58
2023/02/26 07:47:01;;;;;;;4.18;2.30;;;-0.10;74.90;;;;;;4994694;28;20037;-58
2023/02/26 07:49:26;;;;;;;5.15;1.52;;;-0.10;75.00;;;;;;5004770;28;20524;-59
2023/02/26 07:51:52;;;;;;;2.78;1.20;;;-0.10;74.80;;;;;;5005402;28;20603;-58
2023/02/26 07:54:18;;;;;;;4.00;2.13;;;0.00;74.70;;;;;;5006257;28;20077;-57
2023/02/26 07:56:44;;;;;;;6.28;2.75;;;0.00;74.60;;;;;;5008165;28;20109;-59
2023/02/26 07:59:10;;;;;;;12.13;5.15;;;0.00;74.60;;;;;;5007987;28;20038;-60
2023/02/26 08:01:36;;;;;;;14.93;5.15;;;0.00;74.50;;;;;;4998213;28;20045;-59
2023/02/26 08:04:02;;;;;;;8.18;3.50;;;0.00;74.50;;;;;;5006644;28;20038;-59
2023/02/26 08:06:28;;;;;;;10.82;4.60;;;0.10;74.60;;;;;;5009027;28;20701;-58
2023/02/26 08:08:54;;;;;;;3.35;1.70;;;0.10;74.60;;;;;;5006383;28;20398;-58
2023/02/26 08:11:19;;;;;;;7.20;3.05;;;0.10;74.60;;;;;;5003640;28;20026;-58
2023/02/26 08:13:45;;;;;;;6.90;2.70;;;0.20;74.70;;;;;;5008190;28;20073;-57
2023/02/26 08:16:11;;;;;;;3.45;1.70;;;0.20;74.70;;;;;;5011334;28;20038;-59
2023/02/26 08:18:36;;;;;;;4.03;1.63;;;0.30;75.00;;;;;;5012580;28;20049;-56
2023/02/26 08:21:02;;;;;;;8.48;3.03;;;0.30;75.30;;;;;;5012137;28;20052;-57
2023/02/26 08:23:28;;;;;;;3.78;2.10;;;0.40;75.40;;;;;;5011471;28;20081;-57
2023/02/26 08:26:06;;;;;;;4.60;2.20;;;0.50;75.20;;;;;;5008447;28;20568;-55
2023/02/26 08:28:32;;;;;;;3.67;2.00;;;0.60;74.60;;;;;;5009266;28;20038;-64
2023/02/26 08:30:58;;;;;;;5.65;1.70;;;0.70;74.60;;;;;;5010612;28;20057;-60
2023/02/26 08:33:24;;;;;;;2.22;1.70;;;0.70;74.60;;;;;;5008803;28;20069;-56
2023/02/26 08:35:50;;;;;;;3.28;1.80;;;0.80;74.30;;;;;;5010728;28;20065;-58
2023/02/26 08:38:16;;;;;;;2.78;1.70;;;0.80;74.10;;;;;;5011512;28;20037;-56
2023/02/26 08:40:42;;;;;;;2.25;1.23;;;0.80;74.00;;;;;;5013410;28;20536;-58
2023/02/26 08:43:10;;;;;;;5.38;1.60;;;0.90;73.80;;;;;;5013437;28;20576;-57
2023/02/26 08:45:36;;;;;;;2.30;1.60;;;0.90;73.80;;;;;;5008694;28;20152;-57
2023/02/26 08:48:02;;;;;;;2.10;1.60;;;0.90;73.80;;;;;;5013478;28;20113;-58
2023/02/26 08:50:27;;;;;;;5.50;1.50;;;0.90;73.60;;;;;;5012296;28;20022;-59
2023/02/26 08:52:53;;;;;;;3.22;1.75;;;0.90;73.60;;;;;;5011901;28;20036;-59
2023/02/26 08:55:19;;;;;;;2.83;1.60;;;0.90;73.60;;;;;;5007257;28;20123;-58
2023/02/26 08:57:44;;;;;;;5.50;1.65;;;0.90;73.50;;;;;;5008309;28;20104;-58
2023/02/26 09:00:11;;;;;;;2.17;1.42;;;0.90;73.30;;;;;;5005110;28;20038;-55
2023/02/26 09:02:37;;;;;;;3.30;1.85;;;0.90;72.90;;;;;;5010981;28;20533;-54
2023/02/26 09:05:03;;;;;;;4.15;2.28;;;0.90;73.00;;;;;;5007158;28;20152;-59
2023/02/26 09:07:29;;;;;;;10.10;3.55;;;0.90;73.00;;;;;;5011349;28;20026;-58
2023/02/26 09:09:55;;;;;;;8.45;3.28;;;0.90;73.00;;;;;;5013149;28;20044;-58
2023/02/26 09:12:20;;;;;;;6.03;2.47;;;0.90;73.30;;;;;;5006790;28;20044;-57
2023/02/26 09:14:46;;;;;;;4.57;2.30;;;0.80;73.30;;;;;;5009916;28;20512;-58
2023/02/26 09:17:11;;;;;;;5.88;2.60;;;0.80;73.30;;;;;;5014230;28;20117;-56
2023/02/26 09:19:37;;;;;;;5.65;2.10;;;0.80;73.30;;;;;;5015698;28;20056;-59
2023/02/26 09:22:03;;;;;;;4.72;2.25;;;0.80;73.40;;;;;;5012272;28;20030;-58
2023/02/26 09:24:29;;;;;;;2.70;1.70;;;0.90;73.60;;;;;;5012303;28;20112;-59
2023/02/26 09:26:54;;;;;;;1.80;1.60;;;0.90;73.80;;;;;;5010790;28;20381;-58
2023/02/26 09:29:20;;;;;;;3.03;1.50;;;0.90;74.00;;;;;;5009122;28;20049;-56
2023/02/26 09:31:45;;;;;;;2.42;1.40;;;1.00;74.10;;;;;;5009222;28;20037;-57
2023/02/26 09:34:12;;;;;;;1.77;1.67;;;1.10;74.10;;;;;;5013731;28;20119;-56
2023/02/26 09:36:38;;;;;;;2.50;1.52;;;1.20;74.00;;;;;;5011233;28;20439;-58
2023/02/26 09:39:04;;;;;;;2.40;2.17;;;1.20;73.80;;;;;;5012173;28;20480;-58
2023/02/26 09:41:41;;;;;;;2.10;1.67;;;1.30;74.20;;;;;;5011390;28;20140;-59
2023/02/26 09:44:21;;;;;;;2.88;1.65;;;1.40;72.90;;;;;;5010944;28;20037;-60
2023/02/26 09:47:13;;;;;;;1.95;1.40;;;1.40;72.60;;;;;;5009708;28;20176;-59
2023/02/26 09:50:30;;;;;;;2.92;2.28;;;1.40;72.40;;;;;;5009920;28;20459;-59
2023/02/26 09:53:00;;;;;;;2.20;1.60;;;1.40;72.00;;;;;;4984280;28;20038;-56
2023/02/26 09:55:34;;;;;;;2.63;1.80;;;1.50;72.50;;;;;;5000496;28;20041;-58
2023/02/26 09:58:04;;;;;;;2.60;1.90;;;1.50;72.30;;;;;;5009056;28;20038;-58
2023/02/26 10:01:01;;;;;;;3.30;1.90;;;1.40;72.20;;;;;;5013077;28;20041;-59
2023/02/26 10:03:52;;;;;;;2.95;1.90;;;1.50;72.20;;;;;;5006346;28;20045;-58
2023/02/26 10:06:26;;;;;;;5.60;2.97;;;1.40;72.10;;;;;;5015053;28;20034;-57
2023/02/26 10:09:34;;;;;;;5.43;2.20;;;1.40;72.20;;;;;;5020846;28;20037;-59
2023/02/26 10:12:18;;;;;;;2.60;1.60;;;1.50;72.20;;;;;;5014470;28;20029;-60
2023/02/26 10:15:03;;;;;;;2.65;2.08;;;1.40;72.20;;;;;;5014098;28;20552;-58
2023/02/26 10:17:40;;;;;;;1.88;1.40;;;1.50;72.10;;;;;;5016621;28;20568;-58
2023/02/26 10:20:31;;;;;;;1.45;1.13;;;1.40;72.30;;;;;;5015170;28;20088;-58
2023/02/26 10:23:05;;;;;;;1.70;1.00;;;1.50;72.50;;;;;;5014582;28;20088;-57
2023/02/26 10:25:38;;;;;;;1.58;1.30;;;1.50;72.50;;;;;;5015303;28;20121;-56
2023/02/26 10:28:42;;;;;;;2.20;1.30;;;1.50;72.50;;;;;;5016581;28;20060;-57
2023/02/26 10:31:17;;;;;;;1.63;1.50;;;1.60;72.10;;;;;;5013782;28;20448;-57
2023/02/26 10:33:57;;;;;;;4.07;2.00;;;1.60;72.20;;;;;;5016102;28;20041;-58
2023/02/26 10:36:28;;;;;;;4.07;2.38;;;1.60;72.30;;;;;;5013017;28;20041;-59
2023/02/26 10:39:02;;;;;;;2.00;1.45;;;1.60;73.10;;;;;;5004985;28;20431;-59
2023/02/26 10:41:31;;;;;;;1.73;1.45;;;1.70;72.50;;;;;;4993083;28;20405;-57
2023/02/26 10:44:16;;;;;;;11.05;4.43;;;1.70;72.20;;;;;;5003716;28;20386;-57
2023/02/26 10:46:53;;;;;;;6.55;3.92;;;1.70;72.10;;;;;;5006996;28;20075;-57
2023/02/26 10:49:28;;;;;;;7.35;3.35;;;1.70;72.30;;;;;;5007773;28;20041;-56
2023/02/26 10:51:55;;;;;;;4.15;2.45;;;1.70;72.40;;;;;;5006897;28;20037;-56
2023/02/26 10:55:04;;;;;;;3.53;2.28;;;1.70;72.40;;;;;;5008642;28;20030;-58
2023/02/26 10:57:33;;;;;;;3.80;2.78;;;1.70;72.80;;;;;;5005937;28;20592;-58
2023/02/26 11:00:00;;;;;;;2.72;2.10;;;1.70;72.90;;;;;;5011527;28;20124;-56
2023/02/26 11:02:41;;;;;;;3.35;2.20;;;1.70;73.00;;;;;;5014230;28;20133;-60
2023/02/26 11:05:20;;;;;;;2.70;2.10;;;1.70;73.40;;;;;;5011382;28;20046;-58
2023/02/26 11:07:49;;;;;;;3.10;2.30;;;1.70;73.60;;;;;;5014441;28;20033;-60
2023/02/26 11:10:19;;;;;;;4.80;2.78;;;1.60;73.80;;;;;;5007105;28;20037;-60
2023/02/26 11:12:46;;;;;;;5.32;3.22;;;1.60;73.90;;;;;;5004725;28;20034;-60
2023/02/26 11:15:17;;;;;;;11.55;5.57;;;1.60;73.80;;;;;;5008335;28;20061;-60
2023/02/26 11:17:46;;;;;;;11.50;5.85;;;1.60;73.80;;;;;;5014977;28;20412;-58
2023/02/26 11:20:25;;;;;;;9.05;4.57;;;1.60;73.90;;;;;;5006183;28;20038;-57
2023/02/26 11:22:55;;;;;;;5.18;3.03;;;1.60;74.30;;;;;;5009284;28;20045;-59
2023/02/26 11:25:23;;;;;;;4.05;2.83;;;1.50;74.30;;;;;;5011781;28;20053;-59
2023/02/26 11:27:55;;;;;;;3.83;2.30;;;1.50;74.40;;;;;;5010966;28;20059;-57
2023/02/26 11:30:25;;;;;;;2.80;2.40;;;1.50;74.50;;;;;;5011188;28;20040;-59
2023/02/26 11:32:55;;;;;;;2.90;2.13;;;1.50;74.70;;;;;;5011096;28;20038;-59
2023/02/26 11:35:25;;;;;;;2.40;2.20;;;1.50;74.90;;;;;;5010765;28;20057;-59
2023/02/26 11:37:58;;;;;;;3.97;2.20;;;1.50;75.20;;;;;;5009771;28;20065;-59
2023/02/26 11:40:41;;;;;;;3.97;2.20;;;1.50;75.40;;;;;;5012115;28;20124;-58
2023/02/26 11:43:13;;;;;;;2.55;2.30;;;1.60;75.60;;;;;;5014796;28;20041;-59
2023/02/26 11:45:42;;;;;;;2.20;1.83;;;1.60;75.50;;;;;;5011869;28;20134;-59
2023/02/26 11:48:15;;;;;;;3.67;2.50;;;1.70;75.60;;;;;;5012734;28;20038;-57
2023/02/26 11:50:45;;;;;;;3.63;2.42;;;1.70;75.70;;;;;;5009649;28;20765;-58
2023/02/26 11:53:28;;;;;;;3.38;2.90;;;1.80;75.80;;;;;;5007917;28;20172;-58
2023/02/26 11:56:21;;;;;;;2.45;2.25;;;1.80;75.90;;;;;;5011818;28;20042;-58
2023/02/26 11:58:51;;;;;;;3.60;2.40;;;1.90;75.70;;;;;;5011164;28;20048;-58
2023/02/26 12:01:17;;;;;;;2.85;2.40;;;1.90;75.60;;;;;;5011773;28;20049;-57
2023/02/26 12:03:47;;;;;;;2.70;2.50;;;1.90;75.70;;;;;;5015041;28;20475;-58
2023/02/26 12:06:23;;;;;;;4.45;2.20;;;2.00;75.70;;;;;;5015234;28;20038;-59
2023/02/26 12:08:51;;;;;;;2.60;2.40;;;2.00;75.70;;;;;;5009859;28;20041;-59
2023/02/26 12:11:47;;;;;;;2.83;2.53;;;2.10;75.60;;;;;;5011042;28;20061;-59
2023/02/26 12:14:15;;;;;;;3.55;2.30;;;2.10;75.50;;;;;;5009624;28;20034;-60
2023/02/26 12:16:41;;;;;;;2.60;2.40;;;2.10;75.30;;;;;;5008049;28;20155;-58
2023/02/26 12:19:18;;;;;;;2.92;2.63;;;2.20;75.30;;;;;;5011528;28;20042;-58
2023/02/26 12:21:53;;;;;;;6.18;2.92;;;2.20;75.50;;;;;;5011960;28;20092;-57
2023/02/26 12:24:50;;;;;;;4.80;3.45;;;2.20;75.70;;;;;;5012247;28;20042;-58
2023/02/26 12:27:25;;;;;;;4.50;3.30;;;2.30;75.90;;;;;;5007378;28;20038;-58
2023/02/26 12:30:15;;;;;;;4.88;3.42;;;2.30;75.70;;;;;;5010807;28;20079;-58
2023/02/26 12:32:57;;;;;;;3.00;2.67;;;2.30;75.90;;;;;;5012584;28;20030;-58
2023/02/26 12:35:40;;;;;;;2.78;2.53;;;2.40;75.70;;;;;;5012155;28;20041;-58
2023/02/26 12:38:26;;;;;;;2.90;2.70;;;2.30;75.70;;;;;;5009457;28;20125;-58
2023/02/26 12:41:18;;;;;;;4.13;2.55;;;2.30;75.90;;;;;;5012751;28;20061;-57
2023/02/26 12:43:53;;;;;;;2.53;2.28;;;2.30;76.00;;;;;;5008889;28;20044;-58
2023/02/26 12:46:48;;;;;;;2.33;2.13;;;2.30;75.70;;;;;;5009987;28;20038;-58
2023/02/26 12:49:50;;;;;;;2.15;2.00;;;2.30;75.70;;;;;;5009000;28;20044;-57
2023/02/26 12:52:40;;;;;;;2.50;2.30;;;2.30;75.70;;;;;;5009004;28;20473;-58
2023/02/26 12:55:30;;;;;;;2.20;2.00;;;2.20;75.80;;;;;;5006241;28;20586;-59
2023/02/26 12:58:34;;;;;;;2.38;2.17;;;2.30;75.90;;;;;;5004236;28;20030;-58
2023/02/26 13:01:08;;;;;;;2.35;2.13;;;2.30;75.90;;;;;;5005919;28;20756;-59
2023/02/26 13:03:58;;;;;;;2.45;2.25;;;2.30;75.90;;;;;;5011953;28;20042;-58
2023/02/26 13:06:53;;;;;;;2.00;1.90;;;2.40;76.00;;;;;;5016661;28;20038;-60
2023/02/26 13:09:49;;;;;;;1.85;1.75;;;2.50;75.90;;;;;;5013272;28;20033;-58
2023/02/26 13:12:35;;;;;;;3.80;2.17;;;2.50;75.90;;;;;;5007100;28;20042;-59
2023/02/26 13:15:18;;;;;;;3.10;2.40;;;2.60;75.60;;;;;;5011366;28;20034;-59
2023/02/26 13:17:59;;;;;;;2.75;2.03;;;2.60;75.00;;;;;;4997211;28;20686;-60
2023/02/26 13:20:27;;;;;;;2.13;1.92;;;2.60;74.80;;;;;;5007162;28;20116;-59